Terminal Aerodrome Forecast
Issued by NWS Wilmington, OH

Current Version | Previous Version | Graphics & Text | Print | Product List | Glossary On
Versions: 1 2 3 4 5 6 7 8 9 10 11 12 13 14 15 16 17 18 19 20 21 22 23 24
000
FTUS41 KILN 311400 AAB
TAFILN
TAF AMD
KILN 311459Z 3115/0112 22015KT P6SM VCSH OVC025
     FM311600 24014KT P6SM OVC025
     FM312100 27012KT P6SM OVC020
     FM010100 33010KT P6SM OVC015
     FM010400 35008KT 5SM BR OVC007=

USA.gov is the U.S. government's official web portal to all federal, state and local government web resources and services.